Time;durP1;ratioP1;P1;durP2;ratioP2;P2;SDS_P1;SDS_P2;PMS_P1;PMS_P2;Temp;Humidity;BMP_temperature;BMP_pressure;BME280_temperature;BME280_humidity;BME280_pressure;Samples;Min_cycle;Max_cycle;Signal;HPM_P1;HPM_P2
2021/10/20 00:02:12;;;;;;;;;;;19.20;63.80;;;;;;5005182;28;20339;-67
2021/10/20 00:04:38;;;;;;;;;;;19.20;63.80;;;;;;5002886;28;19959;-68
2021/10/20 00:07:03;;;;;;;;;;;19.20;63.70;;;;;;5004586;28;19920;-68
2021/10/20 00:09:29;;;;;;;;;;;19.20;63.80;;;;;;5001817;28;19918;-67
2021/10/20 00:11:54;;;;;;;;;;;19.20;63.80;;;;;;5004846;28;19917;-63
2021/10/20 00:14:20;;;;;;;;;;;19.20;63.80;;;;;;5002604;28;19929;-61
2021/10/20 00:16:45;;;;;;;;;;;19.20;63.70;;;;;;5004562;28;19921;-68
2021/10/20 00:19:11;;;;;;;;;;;19.20;63.70;;;;;;5002989;28;19917;-67
2021/10/20 00:21:36;;;;;;;;;;;19.20;63.70;;;;;;5004426;28;20324;-65
2021/10/20 00:24:02;;;;;;;;;;;19.20;63.70;;;;;;5003588;28;19924;-67
2021/10/20 00:26:27;;;;;;;;;;;19.20;63.80;;;;;;5002311;28;19917;-68
2021/10/20 00:28:53;;;;;;;;;;;19.20;63.80;;;;;;5005342;28;19943;-68
2021/10/20 00:31:18;;;;;;;;;;;19.20;63.70;;;;;;5003007;28;19914;-67
2021/10/20 00:33:44;;;;;;;;;;;19.20;63.70;;;;;;5001323;28;20299;-67
2021/10/20 00:36:09;;;;;;;;;;;19.20;63.70;;;;;;4989229;28;19914;-67
2021/10/20 00:38:35;;;;;;;;;;;19.20;63.70;;;;;;4985807;28;19980;-62
2021/10/20 00:41:00;;;;;;;;;;;19.20;63.70;;;;;;4991275;28;19921;-65
2021/10/20 00:43:26;;;;;;;;;;;19.20;63.70;;;;;;4990243;28;20005;-68
2021/10/20 00:45:51;;;;;;;;;;;19.20;63.70;;;;;;4982148;28;20319;-67
2021/10/20 00:48:17;;;;;;;;;;;19.20;63.70;;;;;;4999597;28;19964;-63
2021/10/20 00:50:42;;;;;;;;;;;19.20;63.70;;;;;;5002193;28;20299;-67
2021/10/20 00:53:08;;;;;;;;;;;19.20;63.70;;;;;;5004265;28;19913;-66
2021/10/20 00:55:34;;;;;;;;;;;19.20;63.70;;;;;;5001719;28;20549;-67
2021/10/20 00:57:59;;;;;;;;;;;19.20;63.70;;;;;;5002799;28;19921;-67
2021/10/20 01:00:25;;;;;;;;;;;19.20;63.70;;;;;;5003977;28;19913;-66
2021/10/20 01:02:50;;;;;;;;;;;19.20;63.70;;;;;;4996393;28;19921;-66
2021/10/20 01:05:15;;;;;;;;;;;19.20;63.70;;;;;;5006018;28;20426;-67
2021/10/20 01:07:41;;;;;;;;;;;19.20;63.70;;;;;;5003099;28;19925;-68
2021/10/20 01:10:07;;;;;;;;;;;19.20;63.70;;;;;;4988974;28;19914;-66
2021/10/20 01:12:33;;;;;;;;;;;19.20;63.70;;;;;;4996873;28;19922;-64
2021/10/20 01:14:58;;;;;;;;;;;19.20;63.70;;;;;;4986353;28;19940;-67
2021/10/20 01:17:24;;;;;;;;;;;19.20;63.80;;;;;;5008361;28;19913;-67
2021/10/20 01:19:49;;;;;;;;;;;19.20;63.70;;;;;;5005842;28;19913;-68
2021/10/20 01:22:14;;;;;;;;;;;19.20;63.70;;;;;;5007377;28;19922;-67
2021/10/20 01:24:40;;;;;;;;;;;19.20;63.70;;;;;;5004368;28;19921;-68
2021/10/20 01:27:05;;;;;;;;;;;19.20;63.70;;;;;;5007648;28;19914;-67
2021/10/20 01:29:31;;;;;;;;;;;19.20;63.70;;;;;;5005959;28;19921;-67
2021/10/20 01:31:57;;;;;;;;;;;19.20;63.70;;;;;;5007638;28;19913;-66
2021/10/20 01:34:23;;;;;;;;;;;19.20;63.70;;;;;;5003342;28;19917;-67
2021/10/20 01:36:48;;;;;;;;;;;19.20;63.70;;;;;;5003009;28;20296;-66
2021/10/20 01:39:14;;;;;;;;;;;19.20;63.70;;;;;;4986832;28;19926;-67
2021/10/20 01:41:39;;;;;;;;;;;19.20;63.70;;;;;;4996294;28;19924;-67
2021/10/20 01:44:05;;;;;;;;;;;19.20;63.70;;;;;;4998035;28;20351;-59
2021/10/20 01:46:30;;;;;;;;;;;19.20;63.70;;;;;;5000418;28;19914;-67
2021/10/20 01:48:56;;;;;;;;;;;19.20;63.70;;;;;;4986352;28;19918;-67
2021/10/20 01:51:21;;;;;;;;;;;19.20;63.70;;;;;;4996600;28;19973;-68
2021/10/20 01:53:48;;;;;;;;;;;19.20;63.70;;;;;;4996135;28;19929;-68
2021/10/20 01:56:13;;;;;;;;;;;19.20;63.70;;;;;;4984324;28;19968;-68
2021/10/20 01:58:39;;;;;;;;;;;19.20;63.70;;;;;;4988230;28;19913;-67
2021/10/20 02:01:07;;;;;;;;;;;19.20;63.60;;;;;;4992965;28;20155;-68
2021/10/20 02:03:33;;;;;;;;;;;19.20;63.70;;;;;;4985284;28;19925;-67
2021/10/20 02:05:58;;;;;;;;;;;19.20;63.70;;;;;;4988431;28;20300;-67
2021/10/20 02:08:24;;;;;;;;;;;19.20;63.60;;;;;;4997238;28;20003;-66
2021/10/20 02:10:49;;;;;;;;;;;19.20;63.60;;;;;;4992605;28;19922;-67
2021/10/20 02:13:15;;;;;;;;;;;19.20;63.60;;;;;;4988047;28;19930;-64
2021/10/20 02:15:40;;;;;;;;;;;19.20;63.70;;;;;;4993468;28;20752;-67
2021/10/20 02:18:06;;;;;;;;;;;19.20;63.60;;;;;;4986365;28;19921;-62
2021/10/20 02:20:31;;;;;;;;;;;19.20;63.60;;;;;;4984793;28;20003;-66
2021/10/20 02:22:56;;;;;;;;;;;19.20;63.60;;;;;;4987425;28;19918;-66
2021/10/20 02:25:22;;;;;;;;;;;19.20;63.60;;;;;;4983617;28;19918;-68
2021/10/20 02:27:48;;;;;;;;;;;19.20;63.60;;;;;;4989748;28;19917;-67
2021/10/20 02:30:14;;;;;;;;;;;19.20;63.50;;;;;;4983502;28;19953;-67
2021/10/20 02:32:39;;;;;;;;;;;19.20;63.50;;;;;;4991911;28;19913;-67
2021/10/20 02:35:06;;;;;;;;;;;19.20;63.50;;;;;;4987086;28;19964;-62
2021/10/20 02:37:31;;;;;;;;;;;19.20;63.50;;;;;;4992477;28;19918;-67
2021/10/20 02:39:57;;;;;;;;;;;19.20;63.60;;;;;;4984574;28;19976;-67
2021/10/20 02:42:22;;;;;;;;;;;19.20;63.60;;;;;;4987135;28;20600;-67
2021/10/20 02:44:47;;;;;;;;;;;19.20;63.50;;;;;;4984193;28;19917;-67
2021/10/20 02:47:13;;;;;;;;;;;19.20;63.50;;;;;;4986541;28;19954;-66
2021/10/20 02:49:38;;;;;;;;;;;19.20;63.50;;;;;;4983639;28;19953;-67
2021/10/20 02:52:04;;;;;;;;;;;19.20;63.50;;;;;;4986316;28;19918;-67
2021/10/20 02:54:29;;;;;;;;;;;19.20;63.50;;;;;;4982381;28;19921;-67
2021/10/20 02:56:55;;;;;;;;;;;19.20;63.50;;;;;;4986547;28;20435;-68
2021/10/20 02:59:21;;;;;;;;;;;19.20;63.50;;;;;;4982404;28;19922;-68
2021/10/20 03:01:46;;;;;;;;;;;19.20;63.50;;;;;;4986207;28;20001;-63
2021/10/20 03:04:11;;;;;;;;;;;19.20;63.50;;;;;;4983875;28;20404;-67
2021/10/20 03:06:37;;;;;;;;;;;19.20;63.40;;;;;;4986088;28;19941;-67
2021/10/20 03:09:03;;;;;;;;;;;19.20;63.50;;;;;;4982430;28;19929;-67
2021/10/20 03:11:28;;;;;;;;;;;19.20;63.50;;;;;;4993590;28;19921;-67
2021/10/20 03:13:54;;;;;;;;;;;19.20;63.50;;;;;;4998318;28;20583;-67
2021/10/20 03:16:20;;;;;;;;;;;19.20;63.40;;;;;;4990005;28;19929;-67
2021/10/20 03:18:45;;;;;;;;;;;19.20;63.50;;;;;;4994472;28;20507;-67
2021/10/20 03:21:11;;;;;;;;;;;19.20;63.50;;;;;;4992928;28;19924;-66
2021/10/20 03:23:36;;;;;;;;;;;19.20;63.40;;;;;;4995098;28;20048;-64
2021/10/20 03:26:02;;;;;;;;;;;19.20;63.40;;;;;;4977018;28;19914;-66
2021/10/20 03:28:27;;;;;;;;;;;19.10;63.40;;;;;;4986463;28;19926;-67
2021/10/20 03:30:52;;;;;;;;;;;19.20;63.40;;;;;;4997588;28;19963;-67
2021/10/20 03:33:18;;;;;;;;;;;19.20;63.40;;;;;;5004676;28;19925;-65
2021/10/20 03:35:43;;;;;;;;;;;19.20;63.40;;;;;;4997555;28;19913;-57
2021/10/20 03:38:11;;;;;;;;;;;19.20;63.40;;;;;;5004932;28;19922;-66
2021/10/20 03:40:36;;;;;;;;;;;19.20;63.40;;;;;;4998210;28;19921;-66
2021/10/20 03:43:01;;;;;;;;;;;19.20;63.40;;;;;;4992059;28;19913;-66
2021/10/20 03:45:27;;;;;;;;;;;19.20;63.30;;;;;;4985466;28;20079;-62
2021/10/20 03:47:52;;;;;;;;;;;19.10;63.30;;;;;;4985584;28;20016;-67
2021/10/20 03:50:18;;;;;;;;;;;19.10;63.30;;;;;;4992423;28;19913;-67
2021/10/20 03:52:43;;;;;;;;;;;19.20;63.40;;;;;;4996912;28;20067;-68
2021/10/20 03:55:09;;;;;;;;;;;19.20;63.30;;;;;;4993819;28;19921;-60
2021/10/20 03:57:38;;;;;;;;;;;19.20;63.30;;;;;;4985701;28;19921;-61
2021/10/20 04:00:04;;;;;;;;;;;19.20;63.30;;;;;;4983940;28;20456;-67
2021/10/20 04:02:30;;;;;;;;;;;19.10;63.20;;;;;;4986346;28;19925;-66
2021/10/20 04:04:55;;;;;;;;;;;19.20;63.30;;;;;;4983046;28;19914;-68
2021/10/20 04:07:21;;;;;;;;;;;19.10;63.20;;;;;;4982001;28;19953;-67
2021/10/20 04:09:46;;;;;;;;;;;19.10;63.20;;;;;;4981374;28;19988;-67
2021/10/20 04:12:11;;;;;;;;;;;19.10;63.20;;;;;;5002736;28;19924;-68
2021/10/20 04:14:37;;;;;;;;;;;19.10;63.30;;;;;;4993390;28;20273;-67
2021/10/20 04:17:03;;;;;;;;;;;19.10;63.20;;;;;;4996053;28;19922;-66
2021/10/20 04:19:28;;;;;;;;;;;19.10;63.20;;;;;;4988942;28;19921;-60
2021/10/20 04:21:54;;;;;;;;;;;19.10;63.20;;;;;;4978610;28;19917;-67
2021/10/20 04:24:19;;;;;;;;;;;19.10;63.20;;;;;;4987118;28;20357;-63
2021/10/20 04:26:45;;;;;;;;;;;19.10;63.20;;;;;;4987800;28;19913;-61
2021/10/20 04:29:10;;;;;;;;;;;19.10;63.10;;;;;;4988099;28;19924;-68
2021/10/20 04:31:36;;;;;;;;;;;19.10;63.00;;;;;;4984865;28;20743;-66
2021/10/20 04:34:01;;;;;;;;;;;19.10;63.10;;;;;;4980780;28;19921;-59
2021/10/20 04:36:27;;;;;;;;;;;19.10;63.30;;;;;;4985344;28;19997;-68
2021/10/20 04:38:52;;;;;;;;;;;19.10;63.50;;;;;;4983777;28;20301;-67
2021/10/20 04:41:17;;;;;;;;;;;19.10;63.60;;;;;;4985128;28;20000;-67
2021/10/20 04:43:43;;;;;;;;;;;19.10;63.60;;;;;;4984902;28;19921;-69
2021/10/20 04:46:08;;;;;;;;;;;19.20;63.70;;;;;;4984552;28;19921;-67
2021/10/20 04:48:34;;;;;;;;;;;19.10;63.60;;;;;;4992415;28;20462;-59
2021/10/20 04:50:59;;;;;;;;;;;19.10;63.50;;;;;;4992177;28;19913;-66
2021/10/20 04:53:25;;;;;;;;;;;19.10;63.60;;;;;;4984642;28;20384;-65
2021/10/20 04:55:50;;;;;;;;;;;19.10;63.60;;;;;;4983147;28;19917;-60
2021/10/20 04:58:16;;;;;;;;;;;19.20;63.60;;;;;;5002824;28;19913;-58
2021/10/20 05:00:41;;;;;;;;;;;19.10;63.60;;;;;;5004003;28;20295;-59
2021/10/20 05:03:06;;;;;;;;;;;19.10;63.40;;;;;;5003905;28;19964;-67
2021/10/20 05:05:32;;;;;;;;;;;19.10;63.30;;;;;;5003986;28;19914;-57
2021/10/20 05:08:00;;;;;;;;;;;19.10;63.20;;;;;;5002949;28;20537;-67
2021/10/20 05:10:26;;;;;;;;;;;19.10;63.20;;;;;;4991766;28;20391;-67
2021/10/20 05:12:52;;;;;;;;;;;19.10;63.10;;;;;;4984260;28;20013;-59
2021/10/20 05:15:18;;;;;;;;;;;19.10;63.10;;;;;;4994548;28;20012;-67
2021/10/20 05:17:43;;;;;;;;;;;19.10;63.10;;;;;;4993649;28;20012;-67
2021/10/20 05:20:09;;;;;;;;;;;19.10;63.00;;;;;;4993044;28;19948;-66
2021/10/20 05:22:35;;;;;;;;;;;19.10;63.00;;;;;;5001054;28;19917;-67
2021/10/20 05:25:01;;;;;;;;;;;19.10;63.10;;;;;;4985682;28;19980;-68
2021/10/20 05:27:26;;;;;;;;;;;19.10;63.00;;;;;;5017120;28;19976;-68
2021/10/20 05:29:51;;;;;;;;;;;19.10;63.70;;;;;;4998195;28;19921;-67
2021/10/20 05:32:17;;;;;;;;;;;19.10;64.00;;;;;;4987062;28;19913;-67
2021/10/20 05:34:42;;;;;;;;;;;19.10;64.00;;;;;;4983624;28;19917;-66
2021/10/20 05:37:08;;;;;;;;;;;19.10;63.80;;;;;;4984248;28;19914;-67
2021/10/20 05:39:33;;;;;;;;;;;19.10;63.60;;;;;;4982732;28;19914;-68
2021/10/20 05:41:59;;;;;;;;;;;19.10;63.60;;;;;;4984566;28;19914;-67
2021/10/20 05:44:24;;;;;;;;;;;19.10;63.50;;;;;;4983794;28;20013;-67
2021/10/20 05:46:50;;;;;;;;;;;19.10;63.50;;;;;;4984183;28;20862;-65
2021/10/20 05:49:16;;;;;;;;;;;19.10;63.40;;;;;;4984086;28;19922;-67
2021/10/20 05:51:41;;;;;;;;;;;19.10;63.30;;;;;;4987823;28;19914;-66
2021/10/20 05:54:06;;;;;;;;;;;19.10;63.30;;;;;;4987374;28;19914;-66
2021/10/20 05:56:32;;;;;;;;;;;19.10;63.20;;;;;;4987357;28;20012;-67
2021/10/20 05:58:57;;;;;;;;;;;19.10;63.10;;;;;;4987279;28;19914;-67
2021/10/20 06:01:23;;;;;;;;;;;19.10;63.10;;;;;;4987813;28;19918;-67
2021/10/20 06:03:49;;;;;;;;;;;19.10;63.10;;;;;;4986863;28;19918;-67
2021/10/20 06:06:14;;;;;;;;;;;19.10;63.00;;;;;;5000303;28;20011;-67
2021/10/20 06:08:40;;;;;;;;;;;19.10;63.70;;;;;;4994597;28;20408;-67
2021/10/20 06:11:05;;;;;;;;;;;19.10;64.00;;;;;;4997077;28;19914;-68
2021/10/20 06:13:31;;;;;;;;;;;19.10;63.60;;;;;;4988067;28;19983;-67
2021/10/20 06:15:56;;;;;;;;;;;19.10;63.10;;;;;;4992739;28;19922;-68
2021/10/20 06:18:23;;;;;;;;;;;19.10;62.60;;;;;;4993615;28;19920;-68
2021/10/20 06:20:48;;;;;;;;;;;19.10;62.00;;;;;;4997793;28;19918;-68
2021/10/20 06:23:13;;;;;;;;;;;19.10;61.50;;;;;;4996228;28;19913;-67
2021/10/20 06:25:39;;;;;;;;;;;19.10;61.10;;;;;;4995320;28;19914;-67
2021/10/20 06:28:04;;;;;;;;;;;19.10;60.70;;;;;;4988269;28;19988;-68
2021/10/20 06:30:30;;;;;;;;;;;19.10;60.20;;;;;;5003253;28;19921;-67
2021/10/20 06:32:55;;;;;;;;;;;19.10;60.10;;;;;;4992275;28;19914;-68
2021/10/20 06:35:21;;;;;;;;;;;19.10;59.80;;;;;;4996086;28;19972;-68
2021/10/20 06:37:47;;;;;;;;;;;19.10;59.60;;;;;;4987615;28;19914;-68
2021/10/20 06:40:13;;;;;;;;;;;19.00;59.20;;;;;;4987480;28;19957;-68
2021/10/20 06:42:38;;;;;;;;;;;19.10;59.00;;;;;;4987904;28;20380;-68
2021/10/20 06:45:04;;;;;;;;;;;19.00;58.70;;;;;;4987644;28;19918;-68
2021/10/20 06:47:29;;;;;;;;;;;19.00;58.40;;;;;;4988720;28;19921;-66
2021/10/20 06:49:55;;;;;;;;;;;19.10;58.30;;;;;;4988024;28;19922;-67
2021/10/20 06:52:20;;;;;;;;;;;19.10;58.10;;;;;;4987679;28;19921;-66
2021/10/20 06:54:46;;;;;;;;;;;19.00;57.90;;;;;;4987237;28;20347;-68
2021/10/20 06:57:11;;;;;;;;;;;19.00;57.90;;;;;;4987131;28;19918;-67
2021/10/20 06:59:37;;;;;;;;;;;19.00;57.60;;;;;;4985616;28;19914;-67
2021/10/20 07:02:02;;;;;;;;;;;19.00;57.70;;;;;;4984620;28;19914;-68
2021/10/20 07:04:27;;;;;;;;;;;19.00;57.70;;;;;;4986047;28;19921;-68
2021/10/20 07:06:55;;;;;;;;;;;19.00;57.90;;;;;;4987290;28;20375;-68
2021/10/20 07:09:21;;;;;;;;;;;19.00;57.90;;;;;;4987232;28;19917;-68
2021/10/20 07:11:47;;;;;;;;;;;19.00;57.90;;;;;;4987534;28;20297;-66
2021/10/20 07:14:12;;;;;;;;;;;19.00;58.00;;;;;;4987049;28;19930;-67
2021/10/20 07:16:38;;;;;;;;;;;19.00;58.10;;;;;;4987984;28;19918;-68
2021/10/20 07:19:06;;;;;;;;;;;19.00;58.20;;;;;;4990920;28;19918;-68
2021/10/20 07:21:31;;;;;;;;;;;18.90;58.10;;;;;;4990596;28;19920;-68
2021/10/20 07:23:57;;;;;;;;;;;19.00;58.40;;;;;;4989819;28;19914;-66
2021/10/20 07:26:22;;;;;;;;;;;18.90;58.20;;;;;;4989148;28;19924;-66
2021/10/20 07:28:48;;;;;;;;;;;18.90;58.40;;;;;;4987394;28;19968;-68
2021/10/20 07:31:13;;;;;;;;;;;18.90;58.50;;;;;;4987783;28;19921;-68
2021/10/20 07:33:39;;;;;;;;;;;18.90;58.60;;;;;;4986457;28;20388;-67
2021/10/20 07:36:04;;;;;;;;;;;18.90;58.60;;;;;;4986785;28;19946;-68
2021/10/20 07:38:30;;;;;;;;;;;18.90;58.70;;;;;;4987059;28;19930;-68
2021/10/20 07:40:55;;;;;;;;;;;18.90;58.80;;;;;;4987001;28;19914;-67
2021/10/20 07:43:21;;;;;;;;;;;18.90;58.90;;;;;;4986960;28;22161;-68
2021/10/20 07:45:46;;;;;;;;;;;18.90;58.90;;;;;;4986641;28;19914;-68
2021/10/20 07:48:11;;;;;;;;;;;18.90;59.00;;;;;;4986226;28;19953;-67
2021/10/20 07:50:37;;;;;;;;;;;19.00;59.00;;;;;;4986190;28;19914;-67
2021/10/20 07:53:03;;;;;;;;;;;18.90;59.20;;;;;;4983341;28;20431;-67
2021/10/20 07:55:28;;;;;;;;;;;18.90;59.10;;;;;;4986225;28;19914;-68
2021/10/20 07:57:54;;;;;;;;;;;18.90;59.20;;;;;;4986273;28;19920;-68
2021/10/20 08:00:20;;;;;;;;;;;18.90;59.20;;;;;;4986181;28;19921;-67
2021/10/20 08:02:46;;;;;;;;;;;18.90;59.30;;;;;;4985827;28;19921;-68
2021/10/20 08:05:14;;;;;;;;;;;18.90;59.30;;;;;;4990130;28;19921;-65
2021/10/20 08:07:44;;;;;;;;;;;18.90;60.10;;;;;;4992573;28;19965;-67
2021/10/20 08:10:11;;;;;;;;;;;18.90;59.50;;;;;;4995385;28;19920;-68
2021/10/20 08:12:36;;;;;;;;;;;18.90;59.50;;;;;;4985164;28;20785;-69
2021/10/20 08:15:02;;;;;;;;;;;18.90;60.00;;;;;;5001396;28;20560;-67
2021/10/20 08:17:28;;;;;;;;;;;18.90;59.60;;;;;;4986657;28;19914;-68
2021/10/20 08:19:53;;;;;;;;;;;18.90;59.70;;;;;;5014765;28;20295;-68
2021/10/20 08:22:19;;;;;;;;;;;18.90;59.60;;;;;;5003775;28;19939;-66
2021/10/20 08:24:44;;;;;;;;;;;19.00;59.60;;;;;;5005667;28;19922;-68
2021/10/20 08:27:10;;;;;;;;;;;18.90;59.60;;;;;;5005386;28;20404;-68
2021/10/20 08:29:36;;;;;;;;;;;18.90;59.50;;;;;;5000679;28;19918;-68
2021/10/20 08:32:03;;;;;;;;;;;18.90;59.50;;;;;;4990547;28;19960;-68
2021/10/20 08:34:29;;;;;;;;;;;18.90;60.20;;;;;;5001011;28;19913;-67
2021/10/20 08:36:54;;;;;;;;;;;18.90;59.60;;;;;;4986239;28;19925;-65
2021/10/20 08:39:20;;;;;;;;;;;19.00;59.60;;;;;;4991793;28;20343;-67
2021/10/20 08:41:45;;;;;;;;;;;19.00;59.60;;;;;;4999591;28;19920;-65
2021/10/20 08:44:10;;;;;;;;;;;19.00;59.20;;;;;;4995199;28;19918;-69
2021/10/20 08:46:36;;;;;;;;;;;19.00;59.00;;;;;;4994154;28;19918;-68
2021/10/20 08:49:02;;;;;;;;;;;19.00;58.60;;;;;;5004626;28;19925;-69
2021/10/20 08:51:28;;;;;;;;;;;19.00;58.30;;;;;;4989709;28;19914;-68
2021/10/20 08:53:56;;;;;;;;;;;18.90;58.00;;;;;;4984557;28;19980;-68
2021/10/20 08:56:21;;;;;;;;;;;19.00;57.70;;;;;;4984908;28;20008;-67
2021/10/20 08:58:46;;;;;;;;;;;19.00;57.50;;;;;;4985486;28;20427;-69
2021/10/20 09:01:12;;;;;;;;;;;19.00;57.30;;;;;;4985137;28;19914;-67
2021/10/20 09:03:37;;;;;;;;;;;19.00;57.10;;;;;;4985830;28;20029;-67
2021/10/20 09:06:03;;;;;;;;;;;18.90;56.70;;;;;;4984930;28;20304;-69
2021/10/20 09:08:39;;;;;;;;;;;18.90;56.60;;;;;;4985355;28;19981;-66
2021/10/20 09:11:15;;;;;;;;;;;19.00;56.50;;;;;;4994339;28;19921;-68
2021/10/20 09:13:40;;;;;;;;;;;19.00;56.20;;;;;;5004775;28;20134;-68
2021/10/20 09:16:06;;;;;;;;;;;18.90;55.90;;;;;;5004684;28;19929;-68
2021/10/20 09:18:37;;;;;;;;;;;18.90;55.80;;;;;;5005551;28;19949;-68
2021/10/20 09:21:04;;;;;;;;;;;19.00;55.60;;;;;;5000285;28;19956;-67
2021/10/20 09:23:29;;;;;;;;;;;19.00;55.60;;;;;;4994691;28;20834;-67
2021/10/20 09:25:57;;;;;;;;;;;18.90;55.40;;;;;;5003970;28;20364;-64
2021/10/20 09:28:23;;;;;;;;;;;19.00;55.30;;;;;;4997214;28;19922;-68
2021/10/20 09:30:48;;;;;;;;;;;19.00;55.20;;;;;;4988389;28;19914;-68
2021/10/20 09:33:14;;;;;;;;;;;19.00;55.10;;;;;;4989936;28;19917;-68
2021/10/20 09:35:39;;;;;;;;;;;19.00;54.90;;;;;;4989751;28;19914;-68
2021/10/20 09:38:05;;;;;;;;;;;19.00;54.80;;;;;;4989473;28;19976;-68
2021/10/20 09:40:34;;;;;;;;;;;19.00;54.70;;;;;;4989219;28;19952;-68
2021/10/20 09:42:59;;;;;;;;;;;18.90;54.60;;;;;;5003987;28;19922;-69
2021/10/20 09:45:25;;;;;;;;;;;18.90;54.50;;;;;;4989108;28;19992;-68
2021/10/20 09:47:52;;;;;;;;;;;18.90;54.40;;;;;;4989388;28;19938;-68
2021/10/20 09:50:18;;;;;;;;;;;19.00;54.40;;;;;;4988131;28;19985;-68
2021/10/20 09:52:43;;;;;;;;;;;19.00;54.50;;;;;;4988722;28;20012;-67
2021/10/20 09:55:12;;;;;;;;;;;18.90;54.30;;;;;;4988087;28;19918;-68
2021/10/20 09:57:37;;;;;;;;;;;19.00;54.30;;;;;;5003595;28;19967;-68
2021/10/20 10:00:03;;;;;;;;;;;18.90;54.40;;;;;;4996661;28;19922;-67
2021/10/20 10:02:28;;;;;;;;;;;18.90;54.30;;;;;;4988302;28;19993;-68
2021/10/20 10:04:54;;;;;;;;;;;18.90;55.00;;;;;;4999403;28;19914;-68
2021/10/20 10:07:19;;;;;;;;;;;18.90;54.60;;;;;;5002413;28;20296;-64
2021/10/20 10:09:45;;;;;;;;;;;19.00;51.50;;;;;;4988525;28;19918;-67
2021/10/20 10:12:14;;;;;;;;;;;19.00;51.80;;;;;;4988343;28;19914;-66
2021/10/20 10:14:40;;;;;;;;;;;19.00;52.20;;;;;;4993116;28;19924;-68
2021/10/20 10:17:05;;;;;;;;;;;19.00;52.30;;;;;;5003485;28;20360;-68
2021/10/20 10:19:31;;;;;;;;;;;19.00;52.00;;;;;;5003767;28;19913;-68
2021/10/20 10:21:58;;;;;;;;;;;18.90;52.20;;;;;;4987671;28;20171;-68
2021/10/20 10:24:23;;;;;;;;;;;19.00;52.30;;;;;;5001360;28;19922;-68
2021/10/20 10:27:15;;;;;;;;;;;18.90;52.40;;;;;;4987715;28;19928;-68
2021/10/20 10:29:46;;;;;;;;;;;18.90;52.60;;;;;;4989310;28;19925;-68
2021/10/20 10:32:12;;;;;;;;;;;18.90;52.30;;;;;;4994513;28;19921;-68
2021/10/20 10:34:38;;;;;;;;;;;18.90;52.50;;;;;;4987196;28;19984;-68
2021/10/20 10:37:04;;;;;;;;;;;18.90;52.40;;;;;;4988356;28;19918;-67
2021/10/20 10:39:30;;;;;;;;;;;18.90;52.50;;;;;;5005921;28;19932;-67
2021/10/20 10:41:57;;;;;;;;;;;18.90;52.50;;;;;;4992408;28;22166;-68
2021/10/20 10:44:22;;;;;;;;;;;18.90;52.60;;;;;;5005280;28;19920;-68
2021/10/20 10:47:07;;;;;;;;;;;18.90;52.80;;;;;;4997652;28;19914;-67
2021/10/20 10:49:34;;;;;;;;;;;18.90;52.90;;;;;;4995963;28;19917;-68
2021/10/20 10:52:02;;;;;;;;;;;18.90;53.00;;;;;;5006471;28;19921;-66
2021/10/20 10:54:34;;;;;;;;;;;18.90;53.10;;;;;;5007701;28;20613;-67
2021/10/20 10:57:11;;;;;;;;;;;18.90;53.20;;;;;;4994948;28;20402;-67
2021/10/20 10:59:36;;;;;;;;;;;18.90;53.00;;;;;;4994900;28;19917;-68
2021/10/20 11:02:02;;;;;;;;;;;18.90;53.00;;;;;;5002195;28;19918;-67
2021/10/20 11:04:34;;;;;;;;;;;19.00;53.10;;;;;;4994659;28;19937;-68
2021/10/20 11:07:00;;;;;;;;;;;18.90;52.80;;;;;;5000971;28;19918;-67
2021/10/20 11:09:33;;;;;;;;;;;19.00;51.90;;;;;;4987146;28;19950;-67
2021/10/20 11:11:59;;;;;;;;;;;19.00;51.80;;;;;;4995911;28;19984;-67
2021/10/20 11:14:25;;;;;;;;;;;19.00;52.00;;;;;;4995127;28;20529;-67
2021/10/20 11:16:58;;;;;;;;;;;18.90;52.30;;;;;;4985801;28;19914;-68
2021/10/20 11:19:23;;;;;;;;;;;18.90;52.60;;;;;;4987292;28;19933;-67
2021/10/20 11:21:49;;;;;;;;;;;18.90;52.70;;;;;;4987463;28;20060;-67
2021/10/20 11:24:15;;;;;;;;;;;18.90;52.80;;;;;;4999255;28;19971;-67
2021/10/20 11:26:40;;;;;;;;;;;18.90;52.80;;;;;;4998259;28;19953;-68
2021/10/20 11:29:08;;;;;;;;;;;18.90;52.90;;;;;;4995050;28;19928;-67
2021/10/20 11:31:36;;;;;;;;;;;18.80;52.40;;;;;;4986741;28;20472;-67
2021/10/20 11:34:37;;;;;;;;;;;18.90;52.80;;;;;;4986825;28;20009;-67
2021/10/20 11:37:02;;;;;;;;;;;18.90;52.60;;;;;;4972253;28;19981;-67
2021/10/20 11:39:29;;;;;;;;;;;18.90;52.90;;;;;;4987413;28;20442;-67
2021/10/20 11:41:55;;;;;;;;;;;18.90;52.80;;;;;;4995732;28;19913;-68
2021/10/20 11:44:24;;;;;;;;;;;18.90;52.80;;;;;;5006003;28;20357;-68
2021/10/20 11:46:50;;;;;;;;;;;18.90;52.80;;;;;;5005626;28;19920;-67
2021/10/20 11:49:15;;;;;;;;;;;18.90;53.50;;;;;;5006003;28;19917;-68
2021/10/20 11:51:41;;;;;;;;;;;18.90;53.20;;;;;;5005957;28;19929;-67
2021/10/20 11:54:07;;;;;;;;;;;18.90;53.10;;;;;;5006879;28;19920;-67
2021/10/20 11:56:32;;;;;;;;;;;18.90;53.20;;;;;;4998899;28;20430;-67
2021/10/20 11:58:57;;;;;;;;;;;18.90;53.40;;;;;;5004674;28;19914;-67
2021/10/20 12:01:23;;;;;;;;;;;18.80;53.40;;;;;;4994461;28;20521;-68
2021/10/20 12:03:49;;;;;;;;;;;18.90;53.70;;;;;;4997358;28;19914;-67
2021/10/20 12:06:16;;;;;;;;;;;18.90;53.80;;;;;;4986756;28;19914;-66
2021/10/20 12:08:45;;;;;;;;;;;18.90;53.90;;;;;;4987915;28;19941;-67
2021/10/20 12:11:10;;;;;;;;;;;18.90;54.10;;;;;;4998168;28;19913;-66
2021/10/20 12:13:36;;;;;;;;;;;18.90;54.10;;;;;;4993763;28;19928;-66
2021/10/20 12:16:01;;;;;;;;;;;18.90;54.20;;;;;;4994588;28;19918;-67
2021/10/20 12:18:28;;;;;;;;;;;18.90;54.30;;;;;;4994760;28;19921;-64
2021/10/20 12:20:54;;;;;;;;;;;18.90;54.50;;;;;;5017705;28;20868;-67
2021/10/20 12:23:20;;;;;;;;;;;18.90;54.60;;;;;;5004960;28;19914;-68
2021/10/20 12:25:46;;;;;;;;;;;18.90;54.70;;;;;;5005224;28;19914;-67
2021/10/20 12:28:11;;;;;;;;;;;18.90;54.80;;;;;;5004999;28;20016;-66
2021/10/20 12:30:37;;;;;;;;;;;18.90;54.90;;;;;;5005409;28;20004;-67
2021/10/20 12:33:07;;;;;;;;;;;18.90;55.00;;;;;;5005948;28;19913;-67
2021/10/20 12:35:32;;;;;;;;;;;18.90;54.90;;;;;;4997643;28;20506;-66
2021/10/20 12:37:58;;;;;;;;;;;18.90;55.00;;;;;;5004686;28;19920;-66
2021/10/20 12:40:24;;;;;;;;;;;18.90;54.90;;;;;;4993477;28;20653;-67
2021/10/20 12:42:52;;;;;;;;;;;18.90;54.90;;;;;;4985587;28;20042;-66
2021/10/20 12:45:18;;;;;;;;;;;18.90;54.90;;;;;;4985840;28;19913;-66
2021/10/20 12:47:45;;;;;;;;;;;18.90;54.90;;;;;;4985647;28;20559;-64
2021/10/20 12:50:11;;;;;;;;;;;18.90;54.60;;;;;;4985523;28;20376;-66
2021/10/20 12:52:37;;;;;;;;;;;18.90;54.70;;;;;;4985658;28;19921;-67
2021/10/20 12:55:04;;;;;;;;;;;18.90;54.90;;;;;;4998189;28;19965;-67
2021/10/20 12:57:31;;;;;;;;;;;18.90;54.90;;;;;;4993657;28;19921;-67
2021/10/20 13:00:02;;;;;;;;;;;18.90;54.60;;;;;;4987457;28;19957;-66
2021/10/20 13:02:27;;;;;;;;;;;18.90;54.70;;;;;;4985515;28;19914;-67
2021/10/20 13:04:52;;;;;;;;;;;18.90;54.90;;;;;;4991315;28;20686;-66
2021/10/20 13:07:18;;;;;;;;;;;18.90;54.80;;;;;;5009051;28;19917;-66
2021/10/20 13:09:43;;;;;;;;;;;18.90;54.90;;;;;;5008872;28;19917;-66
2021/10/20 13:12:09;;;;;;;;;;;18.90;54.90;;;;;;5009804;28;19913;-66
2021/10/20 13:14:34;;;;;;;;;;;18.90;54.90;;;;;;5008754;28;19925;-66
2021/10/20 13:17:00;;;;;;;;;;;18.90;55.00;;;;;;5008554;28;20414;-68
2021/10/20 13:19:25;;;;;;;;;;;19.00;55.00;;;;;;5005224;28;19952;-66
2021/10/20 13:21:50;;;;;;;;;;;18.90;55.10;;;;;;4991338;28;19914;-66
2021/10/20 13:24:16;;;;;;;;;;;18.90;55.10;;;;;;4989074;28;19971;-67
2021/10/20 13:26:41;;;;;;;;;;;18.90;55.20;;;;;;4989185;28;20411;-66
2021/10/20 13:29:07;;;;;;;;;;;18.90;55.20;;;;;;4990276;28;19918;-66
2021/10/20 13:31:32;;;;;;;;;;;18.90;55.20;;;;;;4989519;28;20370;-67
2021/10/20 13:33:58;;;;;;;;;;;18.90;55.30;;;;;;4989974;28;19996;-66
2021/10/20 13:36:24;;;;;;;;;;;18.90;55.50;;;;;;4990175;28;19932;-66
2021/10/20 13:38:49;;;;;;;;;;;19.00;55.60;;;;;;4989523;28;19914;-66
2021/10/20 13:41:15;;;;;;;;;;;18.90;55.60;;;;;;4988898;28;19925;-66
2021/10/20 13:43:40;;;;;;;;;;;19.00;55.70;;;;;;4996514;28;20336;-66
2021/10/20 13:46:06;;;;;;;;;;;19.00;55.90;;;;;;4996396;28;20381;-67
2021/10/20 13:48:32;;;;;;;;;;;19.00;55.90;;;;;;4988772;28;19977;-66
2021/10/20 13:50:57;;;;;;;;;;;19.00;56.00;;;;;;4989209;28;19989;-66
2021/10/20 13:53:23;;;;;;;;;;;19.00;56.00;;;;;;4988510;28;19924;-66
2021/10/20 13:55:48;;;;;;;;;;;19.00;55.90;;;;;;4988578;28;19914;-66
2021/10/20 13:58:15;;;;;;;;;;;19.00;55.90;;;;;;4988590;28;19914;-67
2021/10/20 14:00:40;;;;;;;;;;;19.00;56.00;;;;;;4988745;28;19914;-67
2021/10/20 14:03:05;;;;;;;;;;;19.00;55.90;;;;;;4988736;28;20029;-67
2021/10/20 14:05:33;;;;;;;;;;;19.00;55.80;;;;;;5005784;28;19914;-66
2021/10/20 14:07:59;;;;;;;;;;;19.00;55.90;;;;;;4992287;28;19949;-66
2021/10/20 14:10:24;;;;;;;;;;;19.00;55.90;;;;;;5001942;28;19914;-66